createdAt,value
2018-10-11T00:02:57.271Z,71.61
2018-10-11T00:08:00.316Z,71.87
2018-10-11T00:13:03.447Z,72.22
2018-10-11T00:18:06.529Z,71.67
2018-10-11T00:23:09.622Z,72.04
2018-10-11T00:28:12.713Z,71.62
2018-10-11T00:33:15.796Z,71.49
2018-10-11T00:38:18.872Z,71.27
2018-10-11T00:43:21.963Z,71.20
2018-10-11T00:48:25.064Z,70.64
2018-10-11T00:53:28.143Z,71.01
2018-10-11T00:58:31.203Z,70.92
2018-10-11T01:03:34.286Z,70.99
2018-10-11T01:08:37.522Z,72.21
2018-10-11T01:13:41.416Z,72.70
2018-10-11T01:18:44.537Z,72.47
2018-10-11T01:23:47.695Z,73.08
2018-10-11T01:28:50.748Z,73.66
2018-10-11T01:33:53.888Z,74.80
2018-10-11T01:38:56.985Z,74.98
2018-10-11T01:44:00.391Z,75.42
2018-10-11T01:49:03.490Z,75.19
2018-10-11T01:54:06.648Z,74.59
2018-10-11T01:59:09.767Z,74.44
2018-10-11T02:04:12.855Z,74.42
2018-10-11T02:09:15.973Z,75.07
2018-10-11T02:14:19.063Z,74.77
2018-10-11T02:19:22.223Z,76.04
2018-10-11T02:24:25.348Z,75.73
2018-10-11T02:29:28.513Z,75.57
2018-10-11T02:34:31.575Z,76.36
2018-10-11T02:39:34.657Z,77.49
2018-10-11T02:44:37.725Z,78.43
2018-10-11T02:49:41.438Z,77.50
2018-10-11T02:54:44.568Z,78.14
2018-10-11T02:59:47.732Z,79.27
2018-10-11T03:04:50.923Z,77.49
2018-10-11T03:09:54.452Z,77.52
2018-10-11T03:14:57.541Z,77.23
2018-10-11T03:20:00.661Z,79.57
2018-10-11T03:25:03.783Z,79.68
2018-10-11T03:30:06.916Z,79.19
2018-10-11T03:35:09.987Z,79.06
2018-10-11T03:40:13.060Z,77.78
2018-10-11T03:45:16.137Z,78.14
2018-10-11T03:50:19.255Z,77.40
2018-10-11T03:55:22.349Z,78.79
2018-10-11T04:00:25.848Z,80.63
2018-10-11T04:05:28.953Z,80.62
2018-10-11T04:10:32.018Z,80.37
2018-10-11T04:15:35.551Z,80.35
2018-10-11T04:20:38.621Z,80.62
2018-10-11T04:25:42.037Z,80.95
2018-10-11T04:30:45.167Z,80.46
2018-10-11T04:35:48.234Z,79.00
2018-10-11T04:40:51.282Z,79.13
2018-10-11T04:45:54.710Z,78.59
2018-10-11T04:50:57.784Z,78.87
2018-10-11T04:56:00.931Z,80.15
2018-10-11T05:01:09.800Z,79.42
2018-10-11T05:06:19.712Z,79.11
2018-10-11T05:11:24.812Z,78.36
2018-10-11T05:16:29.604Z,77.88
2018-10-11T05:21:32.806Z,77.47
2018-10-11T05:26:35.905Z,77.52
2018-10-11T05:31:39.068Z,77.14
2018-10-11T05:36:42.240Z,76.07
2018-10-11T05:41:45.468Z,76.54
2018-10-11T05:46:48.688Z,77.37
2018-10-11T05:51:51.872Z,80.12
2018-10-11T05:56:55.038Z,80.25
2018-10-11T06:01:58.210Z,79.73
2018-10-11T06:07:01.411Z,79.26
2018-10-11T06:12:04.619Z,79.37
2018-10-11T06:17:07.792Z,80.32
2018-10-11T06:22:11.002Z,80.86
2018-10-11T06:27:14.251Z,82.18
2018-10-11T06:32:17.434Z,83.02
2018-10-11T06:37:20.652Z,83.02
2018-10-11T06:42:23.975Z,82.09
2018-10-11T06:47:27.583Z,81.19
2018-10-11T06:52:30.842Z,81.83
2018-10-11T06:57:34.013Z,81.06
2018-10-11T07:02:37.067Z,81.22
2018-10-11T07:07:40.145Z,80.45
2018-10-11T07:12:43.588Z,80.03
2018-10-11T07:17:46.693Z,79.78
2018-10-11T07:22:49.791Z,78.78
2018-10-11T07:27:52.865Z,78.77
2018-10-11T07:32:55.964Z,78.56
2018-10-11T07:37:59.095Z,78.18
2018-10-11T07:43:02.175Z,77.49
2018-10-11T07:48:05.553Z,77.19
2018-10-11T07:53:09.980Z,75.40
2018-10-11T07:58:13.155Z,74.24
2018-10-11T08:03:17.508Z,73.40
2018-10-11T08:08:20.599Z,72.68
2018-10-11T08:13:23.778Z,72.52
2018-10-11T08:18:26.842Z,72.19
2018-10-11T08:23:30.048Z,72.33
2018-10-11T08:28:33.159Z,72.17
2018-10-11T08:33:36.251Z,70.66
2018-10-11T08:38:39.910Z,69.92
2018-10-11T08:43:43.135Z,69.00
2018-10-11T08:48:46.552Z,69.17
2018-10-11T08:53:49.876Z,69.33
2018-10-11T08:58:53.163Z,68.48
2018-10-11T09:03:56.595Z,67.53
2018-10-11T09:08:59.647Z,66.70
2018-10-11T09:14:03.044Z,63.08
2018-10-11T09:19:06.154Z,62.24
2018-10-11T09:24:09.370Z,61.65
2018-10-11T09:29:12.466Z,60.41
2018-10-11T09:34:15.576Z,59.48
2018-10-11T09:39:18.730Z,59.40
2018-10-11T09:44:21.779Z,59.01
2018-10-11T09:49:24.955Z,58.04
2018-10-11T09:54:28.147Z,57.17
2018-10-11T09:59:31.143Z,56.90
2018-10-11T10:04:34.217Z,57.21
2018-10-11T10:09:37.321Z,56.74
2018-10-11T10:14:41.224Z,56.74
2018-10-11T10:19:44.843Z,56.42
2018-10-11T10:24:47.951Z,56.09
2018-10-11T10:29:51.154Z,55.47
2018-10-11T10:34:54.305Z,55.29
2018-10-11T10:39:57.547Z,54.09
2018-10-11T10:45:00.720Z,54.46
2018-10-11T10:50:03.879Z,53.36
2018-10-11T10:55:07.021Z,52.82
2018-10-11T11:00:10.627Z,51.85
2018-10-11T11:05:13.703Z,51.71
2018-10-11T11:10:16.796Z,51.57
2018-10-11T11:15:20.495Z,50.72
2018-10-11T11:20:23.724Z,51.13
2018-10-11T11:25:26.919Z,50.54
2018-10-11T11:30:30.001Z,50.57
2018-10-11T11:35:33.108Z,49.61
2018-10-11T11:40:36.212Z,49.85
2018-10-11T11:45:39.642Z,49.73
2018-10-11T11:50:43.187Z,49.32
2018-10-11T11:55:46.561Z,49.22
2018-10-11T12:00:50.071Z,48.78
2018-10-11T12:05:53.512Z,48.64
2018-10-11T12:10:57.165Z,48.82
2018-10-11T12:16:00.369Z,48.70
2018-10-11T12:21:03.640Z,48.21
2018-10-11T12:26:06.967Z,47.67
2018-10-11T12:31:10.110Z,47.64
2018-10-11T12:36:13.392Z,47.43
2018-10-11T12:41:16.544Z,47.31
2018-10-11T12:46:19.720Z,47.85
2018-10-11T12:51:22.845Z,47.28
2018-10-11T12:56:25.956Z,48.09
2018-10-11T13:01:29.101Z,47.69
2018-10-11T13:06:32.211Z,48.10
2018-10-11T13:11:35.291Z,47.82
2018-10-11T13:16:38.439Z,48.13
2018-10-11T13:21:41.590Z,47.61
2018-10-11T13:26:44.941Z,47.89
2018-10-11T13:31:48.516Z,47.32
2018-10-11T13:36:51.638Z,46.98
2018-10-11T13:41:55.068Z,47.53
2018-10-11T13:46:58.168Z,46.15
2018-10-11T13:52:01.252Z,46.43
2018-10-11T13:57:04.579Z,46.64
2018-10-11T14:02:07.744Z,46.53
2018-10-11T14:07:10.886Z,47.18
2018-10-11T14:12:14.004Z,47.08
2018-10-11T14:17:17.296Z,47.59
2018-10-11T14:22:20.796Z,47.37
2018-10-11T14:27:24.321Z,47.35
2018-10-11T14:32:27.908Z,47.07
2018-10-11T14:37:31.316Z,46.52
2018-10-11T14:42:34.643Z,46.64
2018-10-11T14:47:38.077Z,46.94
2018-10-11T14:52:41.809Z,46.70
2018-10-11T14:57:44.963Z,45.72
2018-10-11T15:02:48.153Z,46.29
2018-10-11T15:07:51.355Z,46.55
2018-10-11T15:12:54.448Z,46.26
2018-10-11T15:17:57.795Z,46.72
2018-10-11T15:23:01.049Z,46.03
2018-10-11T15:28:04.208Z,46.49
2018-10-11T15:33:07.347Z,46.21
2018-10-11T15:38:10.772Z,47.35
2018-10-11T15:43:13.880Z,47.56
2018-10-11T15:48:16.975Z,48.26
2018-10-11T15:53:20.060Z,48.30
2018-10-11T15:58:23.233Z,48.87
2018-10-11T16:03:26.364Z,48.56
2018-10-11T16:08:29.438Z,49.30
2018-10-11T16:13:32.560Z,50.11
2018-10-11T16:18:35.671Z,50.72
2018-10-11T16:23:38.737Z,50.99
2018-10-11T16:28:41.840Z,50.84
2018-10-11T16:33:45.080Z,52.17
2018-10-11T16:38:48.377Z,52.77
2018-10-11T16:43:51.675Z,53.28
2018-10-11T16:48:54.834Z,53.63
2018-10-11T16:59:00.731Z,54.64
2018-10-11T17:04:03.995Z,54.95
2018-10-11T17:09:09.235Z,55.25
2018-10-11T17:14:12.315Z,55.50
2018-10-11T17:19:15.443Z,55.40
2018-10-11T17:24:18.593Z,55.85
2018-10-11T17:29:21.835Z,55.79
2018-10-11T17:34:24.952Z,56.51
2018-10-11T17:39:28.847Z,56.45
2018-10-11T17:44:31.995Z,57.47
2018-10-11T17:49:35.125Z,58.54
2018-10-11T17:54:41.779Z,58.92
2018-10-11T17:59:44.953Z,59.20
2018-10-11T18:04:48.159Z,59.72
2018-10-11T18:09:51.362Z,59.79
2018-10-11T18:14:54.435Z,59.91
2018-10-11T18:19:57.555Z,59.86
2018-10-11T18:25:00.915Z,59.80
2018-10-11T18:30:04.076Z,59.65
2018-10-11T18:35:07.784Z,60.73
2018-10-11T18:40:10.887Z,61.02
2018-10-11T18:45:14.017Z,60.84
2018-10-11T18:50:17.217Z,60.21
2018-10-11T18:55:21.103Z,59.79
2018-10-11T19:00:24.178Z,59.70
2018-10-11T19:05:27.259Z,59.47
2018-10-11T19:10:30.332Z,59.52
2018-10-11T19:15:33.448Z,59.68
2018-10-11T19:20:36.660Z,60.19
2018-10-11T19:25:39.724Z,60.93
2018-10-11T19:30:42.825Z,61.14
2018-10-11T19:35:45.972Z,62.29
2018-10-11T19:40:49.059Z,61.69
2018-10-11T19:45:52.156Z,61.82
2018-10-11T19:50:55.275Z,62.09
2018-10-11T19:55:58.407Z,62.22
2018-10-11T20:01:01.512Z,62.63
2018-10-11T20:06:04.831Z,62.39
2018-10-11T20:11:07.900Z,61.55
2018-10-11T20:16:11.020Z,62.17
2018-10-11T20:21:14.157Z,61.31
2018-10-11T20:26:17.606Z,61.68
2018-10-11T20:31:20.652Z,62.36
2018-10-11T20:36:23.703Z,63.30
2018-10-11T20:41:26.742Z,63.61
2018-10-11T20:46:29.821Z,64.27
2018-10-11T20:51:32.982Z,63.97
2018-10-11T20:56:36.021Z,64.46
2018-10-11T21:01:39.089Z,64.63
2018-10-11T21:06:42.167Z,64.29
2018-10-11T21:11:45.239Z,64.20
2018-10-11T21:16:48.349Z,64.36
2018-10-11T21:21:51.506Z,63.98
2018-10-11T21:26:54.731Z,64.51
2018-10-11T21:31:57.827Z,64.94
2018-10-11T21:37:00.900Z,65.12
2018-10-11T21:42:04.024Z,64.99
2018-10-11T21:47:07.528Z,64.51
2018-10-11T21:52:10.927Z,64.06
2018-10-11T21:57:13.996Z,62.67
2018-10-11T22:02:17.074Z,61.17
2018-10-11T22:07:20.155Z,61.14
2018-10-11T22:12:23.287Z,63.54
2018-10-11T22:17:26.413Z,64.29
2018-10-11T22:22:29.472Z,64.49
2018-10-11T22:27:32.550Z,64.05
2018-10-11T22:32:35.648Z,64.60
2018-10-11T22:37:38.708Z,65.01
2018-10-11T22:42:41.870Z,65.36
2018-10-11T22:47:45.047Z,65.67
2018-10-11T22:52:48.140Z,65.40
2018-10-11T22:57:51.249Z,65.71
2018-10-11T23:02:54.524Z,65.76
2018-10-11T23:07:57.837Z,66.06
2018-10-11T23:13:00.903Z,66.75
2018-10-11T23:18:04.048Z,67.11
2018-10-11T23:23:07.152Z,66.85
2018-10-11T23:28:10.215Z,67.02
2018-10-11T23:33:13.322Z,67.62
2018-10-11T23:38:16.383Z,68.25
2018-10-11T23:43:19.432Z,67.78
2018-10-11T23:48:22.529Z,67.89
2018-10-11T23:53:25.727Z,68.12
2018-10-11T23:58:28.851Z,67.83
